createdAt,value
2017-10-23T00:01:52.672Z,6.10
2017-10-23T00:04:19.989Z,5.00
2017-10-23T00:06:47.285Z,4.93
2017-10-23T00:09:14.595Z,5.70
2017-10-23T00:11:41.899Z,5.60
2017-10-23T00:14:09.227Z,5.53
2017-10-23T00:16:36.547Z,6.10
2017-10-23T00:19:03.870Z,5.93
2017-10-23T00:21:31.160Z,5.53
2017-10-23T00:23:59.198Z,7.13
2017-10-23T00:26:26.509Z,5.83
2017-10-23T00:28:53.844Z,6.23
2017-10-23T00:31:21.145Z,6.50
2017-10-23T00:33:48.811Z,7.30
2017-10-23T00:36:16.108Z,8.00
2017-10-23T00:38:43.396Z,7.70
2017-10-23T00:41:10.796Z,9.73
2017-10-23T00:43:38.433Z,8.40
2017-10-23T00:46:06.076Z,9.00
2017-10-23T00:48:33.370Z,7.97
2017-10-23T00:51:00.705Z,8.70
2017-10-23T00:53:28.010Z,9.97
2017-10-23T00:55:55.321Z,8.50
2017-10-23T00:58:22.678Z,9.43
2017-10-23T01:00:49.992Z,10.47
2017-10-23T01:03:17.697Z,9.67
2017-10-23T01:05:44.996Z,9.10
2017-10-23T01:08:12.311Z,10.00
2017-10-23T01:10:39.625Z,9.10
2017-10-23T01:13:06.950Z,10.53
2017-10-23T01:15:34.580Z,9.70
2017-10-23T01:18:01.892Z,10.10
2017-10-23T01:20:29.222Z,10.40
2017-10-23T01:22:57.467Z,9.30
2017-10-23T01:25:25.679Z,9.43
2017-10-23T01:27:53.005Z,9.80
2017-10-23T01:30:20.325Z,9.30
2017-10-23T01:32:47.653Z,10.13
2017-10-23T01:35:14.988Z,9.07
2017-10-23T01:37:42.316Z,10.30
2017-10-23T01:40:09.607Z,9.73
2017-10-23T01:42:37.285Z,9.53
2017-10-23T01:45:04.586Z,9.60
2017-10-23T01:47:31.909Z,9.33
2017-10-23T01:49:59.228Z,8.53
2017-10-23T01:52:26.546Z,8.53
2017-10-23T01:54:53.865Z,8.53
2017-10-23T01:57:21.582Z,9.80
2017-10-23T01:59:48.912Z,9.80
2017-10-23T02:02:16.246Z,9.17
2017-10-23T02:04:43.555Z,9.30
2017-10-23T02:07:10.875Z,8.50
2017-10-23T02:09:38.179Z,8.23
2017-10-23T02:12:05.491Z,8.50
2017-10-23T02:14:32.828Z,8.50
2017-10-23T02:17:00.535Z,8.40
2017-10-23T02:19:27.879Z,9.13
2017-10-23T02:21:55.183Z,8.23
2017-10-23T02:24:22.485Z,8.80
2017-10-23T02:26:49.831Z,7.87
2017-10-23T02:29:17.180Z,8.30
2017-10-23T02:31:44.604Z,8.53
2017-10-23T02:34:11.934Z,9.17
2017-10-23T02:36:39.252Z,8.30
2017-10-23T02:39:06.570Z,8.03
2017-10-23T02:41:33.882Z,7.90
2017-10-23T02:44:01.189Z,8.37
2017-10-23T02:46:28.514Z,7.80
2017-10-23T02:48:55.854Z,8.37
2017-10-23T02:51:23.169Z,7.80
2017-10-23T02:53:50.492Z,7.77
2017-10-23T02:56:17.873Z,7.80
2017-10-23T02:58:45.188Z,7.80
2017-10-23T03:01:12.478Z,8.07
2017-10-23T03:03:39.813Z,7.33
2017-10-23T03:06:07.115Z,7.30
2017-10-23T03:08:34.419Z,8.00
2017-10-23T03:11:02.701Z,7.67
2017-10-23T03:13:30.019Z,7.53
2017-10-23T03:15:57.331Z,7.23
2017-10-23T03:18:24.660Z,6.30
2017-10-23T03:20:51.961Z,7.70
2017-10-23T03:23:19.289Z,7.10
2017-10-23T03:25:46.586Z,7.30
2017-10-23T03:28:13.897Z,8.27
2017-10-23T03:30:41.224Z,7.43
2017-10-23T03:33:08.575Z,8.07
2017-10-23T03:35:36.057Z,7.30
2017-10-23T03:38:03.352Z,6.90
2017-10-23T03:40:30.664Z,7.43
2017-10-23T03:42:57.965Z,7.77
2017-10-23T03:45:25.453Z,8.07
2017-10-23T03:47:52.753Z,7.60
2017-10-23T03:50:20.102Z,7.90
2017-10-23T03:52:48.342Z,8.37
2017-10-23T03:55:15.676Z,7.07
2017-10-23T03:57:43.005Z,7.80
2017-10-23T04:00:10.387Z,7.60
2017-10-23T04:02:37.723Z,7.30
2017-10-23T04:05:05.885Z,7.40
2017-10-23T04:07:33.188Z,7.57
2017-10-23T04:10:00.501Z,7.60
2017-10-23T04:12:27.830Z,7.80
2017-10-23T04:14:55.436Z,7.80
2017-10-23T04:17:22.793Z,8.00
2017-10-23T04:19:50.094Z,7.40
2017-10-23T04:22:17.409Z,8.27
2017-10-23T04:24:44.711Z,8.10
2017-10-23T04:27:12.055Z,7.57
2017-10-23T04:29:39.361Z,8.50
2017-10-23T04:32:06.744Z,8.50
2017-10-23T04:34:34.269Z,7.90
2017-10-23T04:37:01.589Z,8.27
2017-10-23T04:39:29.234Z,9.93
2017-10-23T04:41:56.589Z,9.37
2017-10-23T04:44:23.893Z,8.53
2017-10-23T04:46:51.229Z,10.00
2017-10-23T04:49:18.532Z,8.70
2017-10-23T04:51:45.861Z,9.30
2017-10-23T04:54:13.163Z,9.37
2017-10-23T04:56:40.501Z,9.47
2017-10-23T04:59:07.806Z,9.90
2017-10-23T05:01:35.129Z,9.13
2017-10-23T05:04:02.449Z,9.03
2017-10-23T05:06:29.789Z,10.17
2017-10-23T05:08:57.345Z,9.33
2017-10-23T05:11:24.650Z,9.57
2017-10-23T05:13:51.973Z,9.50
2017-10-23T05:16:19.277Z,10.33
2017-10-23T05:18:46.613Z,10.00
2017-10-23T05:21:13.920Z,10.00
2017-10-23T05:23:41.260Z,10.40
2017-10-23T05:26:09.134Z,11.40
2017-10-23T05:28:36.431Z,9.87
2017-10-23T05:31:03.766Z,10.70
2017-10-23T05:33:31.093Z,11.10
2017-10-23T05:35:58.397Z,10.60
2017-10-23T05:38:25.720Z,10.43
2017-10-23T05:40:53.041Z,10.30
2017-10-23T05:43:20.355Z,11.07
2017-10-23T05:45:47.697Z,10.97
2017-10-23T05:48:15.010Z,11.30
2017-10-23T05:50:42.333Z,10.63
2017-10-23T05:53:09.687Z,11.10
2017-10-23T05:55:37.009Z,11.20
2017-10-23T05:58:04.317Z,11.20
2017-10-23T06:00:32.621Z,11.53
2017-10-23T06:02:59.930Z,11.50
2017-10-23T06:05:27.244Z,10.53
2017-10-23T06:07:54.562Z,11.50
2017-10-23T06:10:21.919Z,12.27
2017-10-23T06:12:49.249Z,12.40
2017-10-23T06:15:16.599Z,11.63
2017-10-23T06:17:44.840Z,10.40
2017-10-23T06:20:12.169Z,12.07
2017-10-23T06:22:40.430Z,11.87
2017-10-23T06:25:07.740Z,13.13
2017-10-23T06:27:35.055Z,12.47
2017-10-23T06:30:02.378Z,12.60
2017-10-23T06:32:29.726Z,12.03
2017-10-23T06:34:57.027Z,11.80
2017-10-23T06:37:24.350Z,12.00
2017-10-23T06:39:51.656Z,11.60
2017-10-23T06:42:18.968Z,12.00
2017-10-23T06:44:46.293Z,11.00
2017-10-23T06:47:13.613Z,11.17
2017-10-23T06:49:40.921Z,11.67
2017-10-23T06:52:08.640Z,11.37
2017-10-23T06:54:35.983Z,11.17
2017-10-23T06:57:03.301Z,11.63
2017-10-23T06:59:30.629Z,12.60
2017-10-23T07:01:57.987Z,11.80
2017-10-23T07:04:25.866Z,12.03
2017-10-23T07:06:53.174Z,11.40
2017-10-23T07:09:20.522Z,11.80
2017-10-23T07:11:47.894Z,12.30
2017-10-23T07:14:15.246Z,12.37
2017-10-23T07:16:42.553Z,12.13
2017-10-23T07:19:09.878Z,12.80
2017-10-23T07:21:37.196Z,12.07
2017-10-23T07:24:04.525Z,11.63
2017-10-23T07:26:33.033Z,12.43
2017-10-23T07:29:00.353Z,12.40
2017-10-23T07:31:27.665Z,13.40
2017-10-23T07:33:55.006Z,13.47
2017-10-23T07:36:22.319Z,13.37
2017-10-23T07:38:49.641Z,13.03
2017-10-23T07:41:17.000Z,13.97
2017-10-23T07:43:45.094Z,12.50
2017-10-23T07:46:12.448Z,13.10
2017-10-23T07:48:39.757Z,12.37
2017-10-23T07:51:07.135Z,13.57
2017-10-23T07:53:34.461Z,12.83
2017-10-23T07:56:01.870Z,12.43
2017-10-23T07:58:29.213Z,12.67
2017-10-23T08:00:57.141Z,13.40
2017-10-23T08:03:24.470Z,11.93
2017-10-23T08:05:51.769Z,12.67
2017-10-23T08:08:19.113Z,12.67
2017-10-23T08:10:46.455Z,13.23
2017-10-23T08:13:13.775Z,12.40
2017-10-23T08:15:41.118Z,12.57
2017-10-23T08:18:09.911Z,12.63
2017-10-23T08:20:37.223Z,12.20
2017-10-23T08:23:05.500Z,12.00
2017-10-23T08:25:32.824Z,12.00
2017-10-23T08:28:00.136Z,12.07
2017-10-23T08:30:27.465Z,11.33
2017-10-23T08:32:54.792Z,11.90
2017-10-23T08:35:22.605Z,12.10
2017-10-23T08:37:49.930Z,12.40
2017-10-23T08:40:17.249Z,11.77
2017-10-23T08:42:44.563Z,11.93
2017-10-23T08:45:11.902Z,11.87
2017-10-23T08:47:39.220Z,11.27
2017-10-23T08:50:06.549Z,10.67
2017-10-23T08:52:34.025Z,11.83
2017-10-23T08:55:01.354Z,11.23
2017-10-23T08:57:28.706Z,11.57
2017-10-23T08:59:56.010Z,11.27
2017-10-23T09:02:23.375Z,11.50
2017-10-23T09:04:50.710Z,11.13
2017-10-23T09:07:18.021Z,11.67
2017-10-23T09:09:45.340Z,11.37
2017-10-23T09:12:12.664Z,10.90
2017-10-23T09:14:40.035Z,11.03
2017-10-23T09:17:07.333Z,10.67
2017-10-23T09:19:34.681Z,11.50
2017-10-23T09:22:01.986Z,11.50
2017-10-23T09:24:29.332Z,12.30
2017-10-23T09:26:56.635Z,11.83
2017-10-23T09:29:23.972Z,12.40
2017-10-23T09:31:51.305Z,10.50
2017-10-23T09:34:18.604Z,10.33
2017-10-23T09:36:45.943Z,10.80
2017-10-23T09:39:13.279Z,8.17
2017-10-23T09:41:40.593Z,8.60
2017-10-23T09:44:08.814Z,7.47
2017-10-23T09:46:36.166Z,7.63
2017-10-23T09:49:03.469Z,8.30
2017-10-23T09:51:30.777Z,8.30
2017-10-23T09:53:58.137Z,9.30
2017-10-23T09:56:25.443Z,9.10
2017-10-23T09:58:52.746Z,9.00
2017-10-23T10:01:21.069Z,9.07
2017-10-23T10:03:48.402Z,8.80
2017-10-23T10:06:15.738Z,6.87
2017-10-23T10:08:43.089Z,8.03
2017-10-23T10:11:10.398Z,6.70
2017-10-23T10:13:37.709Z,7.57
2017-10-23T10:16:05.020Z,8.50
2017-10-23T10:18:32.351Z,8.07
2017-10-23T10:20:59.867Z,6.93
2017-10-23T10:23:27.195Z,7.30
2017-10-23T10:25:54.476Z,6.67
2017-10-23T10:28:22.776Z,7.80
2017-10-23T10:30:50.102Z,6.60
2017-10-23T10:33:17.415Z,6.47
2017-10-23T10:35:44.736Z,6.30
2017-10-23T10:38:12.066Z,6.77
2017-10-23T10:40:40.337Z,6.83
2017-10-23T10:43:07.714Z,6.33
2017-10-23T10:45:35.077Z,5.80
2017-10-23T10:48:02.433Z,6.20
2017-10-23T10:50:29.749Z,6.50
2017-10-23T10:52:57.070Z,4.77
2017-10-23T10:55:24.377Z,6.07
2017-10-23T10:57:51.677Z,5.33
2017-10-23T11:00:18.989Z,6.07
2017-10-23T11:02:46.318Z,5.90
2017-10-23T11:05:13.712Z,5.60
2017-10-23T11:07:41.010Z,5.27
2017-10-23T11:10:08.341Z,5.77
2017-10-23T11:12:35.637Z,5.33
2017-10-23T11:15:02.986Z,5.37
2017-10-23T11:17:30.294Z,4.70
2017-10-23T11:19:57.924Z,4.50
2017-10-23T11:22:25.218Z,5.30
2017-10-23T11:24:52.556Z,5.50
2017-10-23T11:27:20.226Z,5.33
2017-10-23T11:29:47.529Z,5.00
2017-10-23T11:32:15.135Z,5.10
2017-10-23T11:34:42.472Z,4.90
2017-10-23T11:37:09.802Z,4.77
2017-10-23T11:39:37.178Z,5.67
2017-10-23T11:42:04.485Z,4.63
2017-10-23T11:44:31.799Z,5.00
2017-10-23T11:47:00.365Z,5.00
2017-10-23T11:49:28.031Z,5.27
2017-10-23T11:51:55.365Z,4.17
2017-10-23T11:54:22.661Z,4.17
2017-10-23T11:56:49.998Z,4.93
2017-10-23T11:59:17.307Z,5.43
2017-10-23T12:01:44.641Z,5.13
2017-10-23T12:04:11.929Z,4.80
2017-10-23T12:06:39.265Z,4.93
2017-10-23T12:09:06.562Z,5.83
2017-10-23T12:11:34.017Z,5.93
2017-10-23T12:14:01.309Z,6.07
2017-10-23T12:16:28.666Z,5.67
2017-10-23T12:18:55.998Z,5.90
2017-10-23T12:21:24.126Z,5.90
2017-10-23T12:23:51.493Z,5.60
2017-10-23T12:26:19.109Z,5.93
2017-10-23T12:28:46.430Z,6.10
2017-10-23T12:31:13.721Z,6.00
2017-10-23T12:33:41.093Z,5.70
2017-10-23T12:36:08.404Z,5.53
2017-10-23T12:38:35.718Z,5.50
2017-10-23T12:41:03.417Z,6.43
2017-10-23T12:43:30.773Z,6.30
2017-10-23T12:45:58.088Z,5.90
2017-10-23T12:48:25.388Z,6.00
2017-10-23T12:50:53.097Z,5.83
2017-10-23T12:53:20.429Z,6.27
2017-10-23T12:55:47.729Z,6.57
2017-10-23T12:58:15.041Z,6.43
2017-10-23T13:00:42.342Z,6.40
2017-10-23T13:03:10.577Z,6.43
2017-10-23T13:05:37.877Z,7.60
2017-10-23T13:08:05.284Z,7.97
2017-10-23T13:10:32.620Z,7.60
2017-10-23T13:12:59.913Z,7.57
2017-10-23T13:15:27.263Z,8.33
2017-10-23T13:17:54.568Z,9.27
2017-10-23T13:20:21.893Z,9.37
2017-10-23T13:22:49.240Z,9.13
2017-10-23T13:25:16.570Z,9.47
2017-10-23T13:27:43.880Z,9.57
2017-10-23T13:30:11.196Z,9.03
2017-10-23T13:32:38.531Z,11.27
2017-10-23T13:35:06.244Z,11.23
2017-10-23T13:37:33.569Z,11.40
2017-10-23T13:40:00.900Z,11.47
2017-10-23T13:42:28.222Z,12.00
2017-10-23T13:44:55.552Z,11.67
2017-10-23T13:47:23.184Z,12.10
2017-10-23T13:49:50.590Z,12.43
2017-10-23T13:52:17.917Z,13.30
2017-10-23T13:54:45.782Z,12.73
2017-10-23T13:57:13.143Z,13.77
2017-10-23T13:59:40.474Z,13.70
2017-10-23T14:02:07.831Z,13.60
2017-10-23T14:04:35.158Z,12.77
2017-10-23T14:07:02.637Z,12.77
2017-10-23T14:09:29.958Z,13.23
2017-10-23T14:11:57.295Z,13.53
2017-10-23T14:14:24.933Z,13.23
2017-10-23T14:16:52.269Z,14.10
2017-10-23T14:19:19.582Z,13.80
2017-10-23T14:21:46.893Z,13.83
2017-10-23T14:24:14.329Z,13.87
2017-10-23T14:26:41.717Z,14.63
2017-10-23T14:29:09.060Z,13.47
2017-10-23T14:31:36.376Z,13.70
2017-10-23T14:34:03.691Z,13.30
2017-10-23T14:36:31.008Z,13.60
2017-10-23T14:38:59.251Z,13.27
2017-10-23T14:41:26.605Z,14.20
2017-10-23T14:43:53.937Z,14.57
2017-10-23T14:46:21.289Z,13.10
2017-10-23T14:48:48.624Z,13.50
2017-10-23T14:51:15.930Z,12.67
2017-10-23T14:53:43.293Z,13.60
2017-10-23T14:56:10.649Z,14.90
2017-10-23T14:58:38.056Z,14.43
2017-10-23T15:01:05.366Z,13.57
2017-10-23T15:03:32.717Z,13.13
2017-10-23T15:06:00.306Z,13.97
2017-10-23T15:08:27.633Z,13.50
2017-10-23T15:10:56.285Z,13.53
2017-10-23T15:13:23.622Z,13.63
2017-10-23T15:15:50.939Z,13.03
2017-10-23T15:18:18.245Z,13.17
2017-10-23T15:20:45.561Z,13.30
2017-10-23T15:23:12.865Z,13.70
2017-10-23T15:25:40.197Z,13.60
2017-10-23T15:28:07.503Z,13.60
2017-10-23T15:30:34.841Z,14.73
2017-10-23T15:33:02.164Z,15.33
2017-10-23T15:35:29.485Z,14.30
2017-10-23T15:37:56.798Z,13.13
2017-10-23T15:40:24.122Z,13.70
2017-10-23T15:42:51.425Z,14.77
2017-10-23T15:45:18.743Z,14.60
2017-10-23T15:47:46.213Z,14.50
2017-10-23T15:50:13.897Z,14.33
2017-10-23T15:52:41.204Z,14.80
2017-10-23T15:55:08.529Z,15.30
2017-10-23T15:57:35.866Z,14.30
2017-10-23T16:00:03.196Z,14.97
2017-10-23T16:02:30.538Z,14.43
2017-10-23T16:04:57.889Z,14.37
2017-10-23T16:07:25.256Z,14.40
2017-10-23T16:09:52.561Z,15.27
2017-10-23T16:12:20.669Z,14.70
2017-10-23T16:14:47.984Z,15.13
2017-10-23T16:17:15.311Z,15.37
2017-10-23T16:19:42.657Z,16.47
2017-10-23T16:22:10.021Z,16.37
2017-10-23T16:24:37.580Z,16.20
2017-10-23T16:27:04.909Z,16.33
2017-10-23T16:29:32.685Z,16.40
2017-10-23T16:32:00.025Z,16.03
2017-10-23T16:34:27.349Z,15.97
2017-10-23T16:36:55.106Z,16.30
2017-10-23T16:39:22.423Z,16.70
2017-10-23T16:41:49.785Z,17.13
2017-10-23T16:44:17.097Z,16.73
2017-10-23T16:46:44.448Z,17.33
2017-10-23T16:49:11.792Z,15.97
2017-10-23T16:51:39.086Z,16.07
2017-10-23T16:54:06.441Z,16.50
2017-10-23T16:56:33.745Z,16.50
2017-10-23T16:59:01.097Z,16.20
2017-10-23T17:01:28.417Z,17.40
2017-10-23T17:03:55.749Z,16.17
2017-10-23T17:06:23.093Z,17.20
2017-10-23T17:08:50.750Z,15.70
2017-10-23T17:11:18.899Z,16.07
2017-10-23T17:13:46.234Z,15.40
2017-10-23T17:16:13.564Z,15.97
2017-10-23T17:18:41.791Z,15.40
2017-10-23T17:21:09.128Z,16.90
2017-10-23T17:23:36.450Z,18.70
2017-10-23T17:26:03.784Z,20.20
2017-10-23T17:28:31.196Z,18.10
2017-10-23T17:30:58.505Z,20.90
2017-10-23T17:33:25.812Z,19.77
2017-10-23T17:35:53.158Z,19.80
2017-10-23T17:38:20.786Z,22.90
2017-10-23T17:40:48.114Z,21.60
2017-10-23T17:43:15.457Z,21.80
2017-10-23T17:45:42.778Z,21.07
2017-10-23T17:48:10.081Z,21.07
2017-10-23T17:50:39.286Z,22.00
2017-10-23T17:53:06.662Z,22.60
2017-10-23T17:55:34.003Z,22.60
2017-10-23T17:58:01.354Z,21.97
2017-10-23T18:00:29.837Z,21.60
2017-10-23T18:02:57.456Z,22.57
2017-10-23T18:05:24.797Z,21.10
2017-10-23T18:07:52.100Z,24.07
2017-10-23T18:10:19.472Z,23.43
2017-10-23T18:12:46.849Z,29.77
2017-10-23T18:15:14.153Z,23.87
2017-10-23T18:17:41.509Z,39.90
2017-10-23T18:20:08.872Z,33.57
2017-10-23T18:22:36.189Z,29.90
2017-10-23T18:25:03.509Z,31.03
2017-10-23T18:27:30.829Z,29.40
2017-10-23T18:29:58.137Z,22.87
2017-10-23T18:32:25.464Z,24.30
2017-10-23T18:34:52.767Z,21.83
2017-10-23T18:37:20.773Z,20.00
2017-10-23T18:39:48.138Z,19.10
2017-10-23T18:42:15.476Z,19.50
2017-10-23T18:44:43.020Z,19.70
2017-10-23T18:47:10.342Z,19.50
2017-10-23T18:49:37.819Z,18.77
2017-10-23T18:52:05.169Z,19.80
2017-10-23T18:54:32.480Z,20.90
2017-10-23T18:56:59.796Z,20.07
2017-10-23T18:59:27.453Z,21.67
2017-10-23T19:01:54.749Z,20.80
2017-10-23T19:04:22.257Z,20.50
2017-10-23T19:06:49.702Z,20.53
2017-10-23T19:09:17.089Z,20.70
2017-10-23T19:11:44.397Z,23.57
2017-10-23T19:14:11.726Z,20.40
2017-10-23T19:16:39.317Z,22.60
2017-10-23T19:19:06.661Z,23.20
2017-10-23T19:21:33.975Z,27.50
2017-10-23T19:24:01.313Z,22.90
2017-10-23T19:26:29.419Z,22.60
2017-10-23T19:28:56.779Z,22.00
2017-10-23T19:31:24.113Z,23.93
2017-10-23T19:33:52.276Z,23.87
2017-10-23T19:36:19.909Z,21.90
2017-10-23T19:38:47.261Z,21.63
2017-10-23T19:41:14.606Z,23.67
2017-10-23T19:43:41.908Z,21.83
2017-10-23T19:46:09.270Z,19.33
2017-10-23T19:48:36.577Z,19.53
2017-10-23T19:51:03.898Z,21.13
2017-10-23T19:53:31.289Z,22.07
2017-10-23T19:55:58.640Z,20.13
2017-10-23T19:58:25.960Z,21.33
2017-10-23T20:00:53.285Z,24.20
2017-10-23T20:03:22.450Z,21.40
2017-10-23T20:05:49.858Z,22.40
2017-10-23T20:08:17.214Z,21.07
2017-10-23T20:10:44.549Z,20.50
2017-10-23T20:13:11.909Z,20.73
2017-10-23T20:15:39.244Z,22.57
2017-10-23T20:18:06.627Z,20.53
2017-10-23T20:20:34.391Z,19.87
2017-10-23T20:23:01.711Z,19.70
2017-10-23T20:25:29.020Z,19.00
2017-10-23T20:27:57.108Z,19.57
2017-10-23T20:30:24.447Z,19.73
2017-10-23T20:32:51.818Z,21.57
2017-10-23T20:35:19.134Z,22.13
2017-10-23T20:37:46.519Z,19.43
2017-10-23T20:40:13.862Z,21.07
2017-10-23T20:42:41.208Z,18.37
2017-10-23T20:45:08.529Z,18.50
2017-10-23T20:47:36.172Z,18.73
2017-10-23T20:50:03.529Z,20.30
2017-10-23T20:52:30.830Z,20.97
2017-10-23T20:54:58.189Z,21.07
2017-10-23T20:57:25.520Z,20.37
2017-10-23T20:59:52.844Z,21.47
2017-10-23T21:02:20.158Z,22.27
2017-10-23T21:04:48.411Z,20.63
2017-10-23T21:07:15.705Z,22.10
2017-10-23T21:09:43.033Z,20.60
2017-10-23T21:12:10.589Z,22.37
2017-10-23T21:14:38.037Z,22.70
2017-10-23T21:17:05.362Z,21.80
2017-10-23T21:19:32.671Z,23.40
2017-10-23T21:22:00.060Z,19.53
2017-10-23T21:24:28.060Z,20.97
2017-10-23T21:26:55.405Z,20.43
2017-10-23T21:29:22.704Z,20.03
2017-10-23T21:31:53.017Z,21.40
2017-10-23T21:34:20.325Z,20.13
2017-10-23T21:36:47.644Z,19.43
2017-10-23T21:39:14.948Z,21.00
2017-10-23T21:41:42.292Z,21.67
2017-10-23T21:44:09.630Z,20.07
2017-10-23T21:46:43.026Z,19.80
2017-10-23T21:49:10.341Z,20.70
2017-10-23T21:51:37.667Z,22.37
2017-10-23T21:54:04.981Z,22.13
2017-10-23T21:56:32.921Z,21.63
2017-10-23T21:59:00.236Z,20.60
2017-10-23T22:01:27.573Z,19.43
2017-10-23T22:03:54.901Z,22.17
2017-10-23T22:06:22.573Z,19.90
2017-10-23T22:08:49.939Z,21.47
2017-10-23T22:11:17.259Z,21.60
2017-10-23T22:13:44.741Z,20.97
2017-10-23T22:16:12.053Z,21.23
2017-10-23T22:18:40.181Z,20.37
2017-10-23T22:21:07.501Z,20.87
2017-10-23T22:23:34.822Z,19.90
2017-10-23T22:26:02.157Z,21.50
2017-10-23T22:28:29.467Z,20.80
2017-10-23T22:30:56.798Z,20.90
2017-10-23T22:33:24.112Z,19.83
2017-10-23T22:35:51.441Z,21.53
2017-10-23T22:38:18.733Z,20.20
2017-10-23T22:40:46.062Z,19.27
2017-10-23T22:43:13.370Z,20.37
2017-10-23T22:45:40.713Z,18.83
2017-10-23T22:48:08.017Z,20.77
2017-10-23T22:50:35.490Z,19.53
2017-10-23T22:53:02.813Z,20.97
2017-10-23T22:55:30.161Z,21.00
2017-10-23T22:57:57.493Z,20.20
2017-10-23T23:00:24.797Z,18.40
2017-10-23T23:02:52.136Z,20.47
2017-10-23T23:05:19.437Z,18.20
2017-10-23T23:07:46.777Z,18.60
2017-10-23T23:10:14.090Z,17.50
2017-10-23T23:12:41.405Z,19.20
2017-10-23T23:15:08.721Z,18.47
2017-10-23T23:17:36.067Z,19.67
2017-10-23T23:20:03.407Z,18.30
2017-10-23T23:22:30.744Z,18.17
2017-10-23T23:24:58.054Z,18.37
2017-10-23T23:27:25.356Z,16.40
2017-10-23T23:29:52.705Z,17.77
2017-10-23T23:32:20.053Z,18.20
2017-10-23T23:34:47.364Z,16.93
2017-10-23T23:37:14.673Z,16.90
2017-10-23T23:39:42.065Z,17.80
2017-10-23T23:42:09.373Z,17.57
2017-10-23T23:44:36.697Z,15.90
2017-10-23T23:47:04.152Z,16.70
2017-10-23T23:49:31.669Z,18.17
2017-10-23T23:51:59.002Z,16.70
2017-10-23T23:54:26.329Z,16.60
2017-10-23T23:56:53.628Z,17.93
2017-10-23T23:59:20.960Z,16.00
